Lutsen, Minnesota
Current Conditions -  °F | °C
As of 6:34 PM on Wednesday 26 Nov 2014 (Local Time) from KCKC Reporting Station
Scattered Clouds Scattered Clouds  
Wind Chill: -13°   Ceiling: Unl
Heat Index:   Visibility: 7mi
Dew Point: -4°   Wind: 12mph
Humidity: 72%   Direction: 340°NNW
Pressure: 30.21"   Gusts: 17mph
Location:  47.65°N, 90.68°W
Report Text: KCKC 270034Z AUTO 34010G15KT 7SM SCT070 M16/M20 A3021 RMK AO2
Loading
Personal Weather Stations






























Interactive Weather Map New forecast layout! Learn more

10-Day Weather Forecast

Advertisements
Track Severe Weather on mobile